createdAt,value
2022-12-01T00:00:50.677Z,37
2022-12-01T00:01:50.786Z,40
2022-12-01T00:02:50.864Z,40
2022-12-01T00:03:50.681Z,41
2022-12-01T00:04:50.674Z,37
2022-12-01T00:05:50.678Z,38
2022-12-01T00:06:50.677Z,40
2022-12-01T00:07:50.710Z,42
2022-12-01T00:08:50.683Z,40
2022-12-01T00:09:51.450Z,43
2022-12-01T00:10:50.674Z,38
2022-12-01T00:11:50.673Z,41
2022-12-01T00:12:50.684Z,41
2022-12-01T00:13:50.673Z,41
2022-12-01T00:14:50.674Z,40
2022-12-01T00:15:50.680Z,39
2022-12-01T00:16:50.727Z,41
2022-12-01T00:17:50.681Z,42
2022-12-01T00:18:50.673Z,44
2022-12-01T00:19:50.934Z,44
2022-12-01T00:20:50.678Z,43
2022-12-01T00:21:50.680Z,43
2022-12-01T00:22:50.671Z,42
2022-12-01T00:23:50.686Z,45
2022-12-01T00:24:50.691Z,44
2022-12-01T00:25:50.684Z,42
2022-12-01T00:26:50.679Z,43
2022-12-01T00:27:50.675Z,42
2022-12-01T00:28:50.675Z,43
2022-12-01T00:29:51.725Z,45
2022-12-01T00:30:50.698Z,49
2022-12-01T00:31:50.751Z,47
2022-12-01T00:32:50.699Z,49
2022-12-01T00:33:50.686Z,48
2022-12-01T00:34:50.680Z,51
2022-12-01T00:35:50.677Z,47
2022-12-01T00:36:50.752Z,45
2022-12-01T00:37:50.676Z,45
2022-12-01T00:38:50.679Z,54
2022-12-01T00:39:50.893Z,49
2022-12-01T00:40:50.673Z,45
2022-12-01T00:41:50.680Z,49
2022-12-01T00:42:50.678Z,48
2022-12-01T00:43:50.675Z,50
2022-12-01T00:44:50.859Z,49
2022-12-01T00:45:50.722Z,50
2022-12-01T00:46:50.677Z,45
2022-12-01T00:47:50.772Z,47
2022-12-01T00:48:50.678Z,47
2022-12-01T00:49:50.876Z,50
2022-12-01T00:50:50.679Z,47
2022-12-01T00:51:50.679Z,48
2022-12-01T00:52:50.692Z,49
2022-12-01T00:53:50.675Z,50
2022-12-01T00:54:50.680Z,56
2022-12-01T00:55:50.684Z,47
2022-12-01T00:56:50.691Z,51
2022-12-01T00:57:50.676Z,55
2022-12-01T00:58:50.686Z,47
2022-12-01T00:59:50.994Z,47
2022-12-01T01:00:50.928Z,51
2022-12-01T01:01:50.713Z,51
2022-12-01T01:02:50.718Z,50
2022-12-01T01:03:50.701Z,53
2022-12-01T01:04:50.731Z,54
2022-12-01T01:05:50.680Z,51
2022-12-01T01:06:50.682Z,52
2022-12-01T01:07:50.752Z,53
2022-12-01T01:08:50.697Z,49
2022-12-01T01:09:50.984Z,51
2022-12-01T01:10:50.679Z,50
2022-12-01T01:11:50.686Z,54
2022-12-01T01:12:50.686Z,51
2022-12-01T01:13:50.682Z,50
2022-12-01T01:14:50.685Z,57
2022-12-01T01:15:50.747Z,56
2022-12-01T01:16:50.796Z,56
2022-12-01T01:17:50.677Z,57
2022-12-01T01:18:50.675Z,56
2022-12-01T01:19:51.013Z,50
2022-12-01T01:20:50.682Z,50
2022-12-01T01:21:50.680Z,52
2022-12-01T01:22:50.687Z,35
2022-12-01T01:23:50.678Z,50
2022-12-01T01:24:50.685Z,51
2022-12-01T01:26:50.763Z,53
2022-12-01T01:27:50.681Z,53
2022-12-01T01:28:50.677Z,51
2022-12-01T01:29:50.974Z,46
2022-12-01T01:30:50.734Z,53
2022-12-01T01:31:50.672Z,51
2022-12-01T01:32:50.682Z,53
2022-12-01T01:33:50.678Z,56
2022-12-01T01:34:50.715Z,52
2022-12-01T01:35:50.678Z,52
2022-12-01T01:36:50.710Z,53
2022-12-01T01:37:50.687Z,50
2022-12-01T01:38:50.745Z,47
2022-12-01T01:39:51.015Z,50
2022-12-01T01:40:50.693Z,50
2022-12-01T01:41:50.676Z,44
2022-12-01T01:42:50.683Z,47
2022-12-01T01:43:50.683Z,50
2022-12-01T01:44:50.683Z,48
2022-12-01T01:45:50.752Z,45
2022-12-01T01:46:50.685Z,47
2022-12-01T01:48:50.688Z,46
2022-12-01T01:49:50.985Z,44
2022-12-01T01:50:50.679Z,47
2022-12-01T01:51:50.690Z,45
2022-12-01T01:52:50.757Z,38
2022-12-01T01:53:50.681Z,38
2022-12-01T01:54:50.679Z,40
2022-12-01T01:55:50.670Z,42
2022-12-01T01:56:50.678Z,39
2022-12-01T01:57:50.681Z,38
2022-12-01T01:58:50.686Z,37
2022-12-01T01:59:51.104Z,35
2022-12-01T02:00:50.733Z,38
2022-12-01T02:01:50.673Z,34
2022-12-01T02:02:50.756Z,36
2022-12-01T02:03:50.687Z,35
2022-12-01T02:04:50.681Z,38
2022-12-01T02:05:50.702Z,38
2022-12-01T02:06:50.691Z,36
2022-12-01T02:07:50.758Z,37
2022-12-01T02:08:50.684Z,32
2022-12-01T02:09:50.913Z,38
2022-12-01T02:10:50.681Z,37
2022-12-01T02:11:50.676Z,39
2022-12-01T02:12:50.685Z,38
2022-12-01T02:13:50.679Z,36
2022-12-01T02:14:50.681Z,40
2022-12-01T02:15:50.677Z,44
2022-12-01T02:16:50.728Z,41
2022-12-01T02:17:50.674Z,44
2022-12-01T02:18:50.673Z,44
2022-12-01T02:19:50.945Z,42
2022-12-01T02:20:50.744Z,43
2022-12-01T02:21:50.679Z,43
2022-12-01T02:22:53.752Z,44
2022-12-01T02:23:50.689Z,43
2022-12-01T02:24:50.687Z,48
2022-12-01T02:25:50.684Z,42
2022-12-01T02:26:50.678Z,44
2022-12-01T02:27:50.681Z,46
2022-12-01T02:28:50.682Z,40
2022-12-01T02:29:50.954Z,41
2022-12-01T02:30:50.713Z,44
2022-12-01T02:31:50.775Z,42
2022-12-01T02:32:50.679Z,42
2022-12-01T02:33:50.686Z,40
2022-12-01T02:34:50.680Z,41
2022-12-01T02:35:50.684Z,46
2022-12-01T02:36:50.705Z,43
2022-12-01T02:37:50.970Z,45
2022-12-01T02:38:50.676Z,43
2022-12-01T02:39:51.023Z,42
2022-12-01T02:40:50.679Z,39
2022-12-01T02:41:50.676Z,41
2022-12-01T02:42:50.754Z,39
2022-12-01T02:43:50.680Z,39
2022-12-01T02:44:50.686Z,37
2022-12-01T02:45:50.700Z,35
2022-12-01T02:46:50.676Z,34
2022-12-01T02:47:50.684Z,32
2022-12-01T02:48:50.672Z,34
2022-12-01T02:49:50.858Z,34
2022-12-01T02:50:50.680Z,33
2022-12-01T02:51:50.702Z,34
2022-12-01T02:52:50.684Z,33
2022-12-01T02:53:50.686Z,34
2022-12-01T02:54:50.680Z,31
2022-12-01T02:55:50.740Z,36
2022-12-01T02:56:50.683Z,36
2022-12-01T02:57:50.674Z,36
2022-12-01T02:58:50.683Z,37
2022-12-01T02:59:50.953Z,36
2022-12-01T03:00:50.689Z,38
2022-12-01T03:01:51.971Z,36
2022-12-01T03:02:50.790Z,41
2022-12-01T03:03:50.684Z,39
2022-12-01T03:04:50.681Z,40
2022-12-01T03:05:50.695Z,38
2022-12-01T03:06:50.681Z,42
2022-12-01T03:07:50.831Z,40
2022-12-01T03:08:50.683Z,38
2022-12-01T03:09:51.087Z,37
2022-12-01T03:10:50.749Z,39
2022-12-01T03:11:50.679Z,39
2022-12-01T03:12:50.682Z,39
2022-12-01T03:13:50.687Z,41
2022-12-01T03:14:50.680Z,41
2022-12-01T03:15:50.763Z,37
2022-12-01T03:16:50.682Z,39
2022-12-01T03:17:50.682Z,37
2022-12-01T03:18:50.682Z,41
2022-12-01T03:19:51.042Z,37
2022-12-01T03:20:50.683Z,39
2022-12-01T03:21:50.691Z,41
2022-12-01T03:22:50.697Z,36
2022-12-01T03:23:50.685Z,32
2022-12-01T03:24:50.696Z,37
2022-12-01T03:25:50.682Z,38
2022-12-01T03:26:50.683Z,37
2022-12-01T03:28:19.695Z,36
2022-12-01T03:28:50.675Z,39
2022-12-01T03:29:50.963Z,37
2022-12-01T03:30:50.769Z,41
2022-12-01T03:31:50.682Z,36
2022-12-01T03:32:50.678Z,35
2022-12-01T03:33:50.688Z,37
2022-12-01T03:34:50.744Z,34
2022-12-01T03:35:50.678Z,34
2022-12-01T03:36:50.695Z,39
2022-12-01T03:37:50.714Z,38
2022-12-01T03:38:50.721Z,38
2022-12-01T03:39:52.833Z,34
2022-12-01T03:40:50.685Z,35
2022-12-01T03:41:50.688Z,39
2022-12-01T03:42:50.690Z,37
2022-12-01T03:43:50.689Z,37
2022-12-01T03:44:50.741Z,35
2022-12-01T03:45:50.713Z,35
2022-12-01T03:46:50.685Z,40
2022-12-01T03:47:50.682Z,39
2022-12-01T03:48:50.678Z,38
2022-12-01T03:49:51.146Z,40
2022-12-01T03:50:50.687Z,40
2022-12-01T03:51:50.690Z,37
2022-12-01T03:52:50.682Z,42
2022-12-01T03:53:50.685Z,36
2022-12-01T03:54:50.752Z,41
2022-12-01T03:55:50.734Z,38
2022-12-01T03:56:50.742Z,44
2022-12-01T03:57:50.751Z,43
2022-12-01T03:58:50.746Z,39
2022-12-01T03:59:51.160Z,36
2022-12-01T04:00:51.121Z,41
2022-12-01T04:02:50.817Z,41
2022-12-01T04:03:50.764Z,43
2022-12-01T04:04:50.786Z,43
2022-12-01T04:05:50.754Z,39
2022-12-01T04:06:50.741Z,44
2022-12-01T04:07:50.826Z,43
2022-12-01T04:08:50.744Z,41
2022-12-01T04:09:51.162Z,44
2022-12-01T04:10:50.748Z,43
2022-12-01T04:11:50.769Z,44
2022-12-01T04:12:50.766Z,41
2022-12-01T04:13:50.751Z,45
2022-12-01T04:14:50.756Z,44
2022-12-01T04:15:50.765Z,38
2022-12-01T04:16:50.740Z,41
2022-12-01T04:17:50.740Z,39
2022-12-01T04:18:50.744Z,40
2022-12-01T04:19:51.115Z,43
2022-12-01T04:20:50.744Z,48
2022-12-01T04:21:50.738Z,47
2022-12-01T04:22:50.751Z,45
2022-12-01T04:23:50.829Z,46
2022-12-01T04:24:50.748Z,43
2022-12-01T04:25:50.739Z,45
2022-12-01T04:26:50.746Z,44
2022-12-01T04:27:50.745Z,45
2022-12-01T04:28:50.745Z,49
2022-12-01T04:29:51.131Z,51
2022-12-01T04:30:50.745Z,47
2022-12-01T04:31:50.860Z,44
2022-12-01T04:32:50.754Z,52
2022-12-01T04:33:50.749Z,45
2022-12-01T04:34:50.748Z,42
2022-12-01T04:35:50.742Z,44
2022-12-01T04:36:50.749Z,39
2022-12-01T04:37:50.752Z,39
2022-12-01T04:38:50.748Z,37
2022-12-01T04:39:51.167Z,36
2022-12-01T04:40:50.782Z,36
2022-12-01T04:41:50.746Z,34
2022-12-01T04:42:50.739Z,35
2022-12-01T04:43:50.882Z,36
2022-12-01T04:44:50.745Z,38
2022-12-01T04:45:50.748Z,33
2022-12-01T04:46:50.857Z,35
2022-12-01T04:47:50.747Z,35
2022-12-01T04:48:50.756Z,37
2022-12-01T04:49:51.116Z,35
2022-12-01T04:50:50.754Z,37
2022-12-01T04:51:50.751Z,36
2022-12-01T04:52:50.746Z,37
2022-12-01T04:53:50.746Z,40
2022-12-01T04:54:50.746Z,41
2022-12-01T04:55:50.750Z,40
2022-12-01T04:56:50.748Z,41
2022-12-01T04:57:50.744Z,37
2022-12-01T04:58:50.754Z,38
2022-12-01T04:59:51.058Z,41
2022-12-01T05:00:50.845Z,41
2022-12-01T05:02:50.738Z,41
2022-12-01T05:03:50.745Z,42
2022-12-01T05:04:50.751Z,40
2022-12-01T05:05:50.742Z,39
2022-12-01T05:06:50.757Z,38
2022-12-01T05:07:50.844Z,38
2022-12-01T05:08:50.744Z,37
2022-12-01T05:09:51.147Z,39
2022-12-01T05:10:50.763Z,36
2022-12-01T05:11:50.775Z,39
2022-12-01T05:12:50.751Z,35
2022-12-01T05:13:50.746Z,38
2022-12-01T05:14:50.959Z,37
2022-12-01T05:15:50.759Z,37
2022-12-01T05:16:50.790Z,34
2022-12-01T05:17:50.754Z,33
2022-12-01T05:18:50.885Z,35
2022-12-01T05:19:51.156Z,32
2022-12-01T05:20:50.743Z,35
2022-12-01T05:21:50.748Z,34
2022-12-01T05:23:05.158Z,32
2022-12-01T05:23:50.744Z,33
2022-12-01T05:24:50.750Z,35
2022-12-01T05:25:50.755Z,32
2022-12-01T05:26:50.757Z,37
2022-12-01T05:27:50.744Z,36
2022-12-01T05:28:50.751Z,35
2022-12-01T05:29:51.073Z,33
2022-12-01T05:30:50.748Z,35
2022-12-01T05:31:50.837Z,40
2022-12-01T05:32:50.749Z,38
2022-12-01T05:34:50.751Z,38
2022-12-01T05:35:50.745Z,40
2022-12-01T05:36:50.752Z,37
2022-12-01T05:37:50.755Z,37
2022-12-01T05:38:50.752Z,40
2022-12-01T05:39:50.993Z,41
2022-12-01T05:40:50.747Z,40
2022-12-01T05:41:50.748Z,41
2022-12-01T05:42:50.776Z,44
2022-12-01T05:43:50.750Z,43
2022-12-01T05:44:51.979Z,42
2022-12-01T05:45:50.783Z,40
2022-12-01T05:46:50.753Z,41
2022-12-01T05:47:50.749Z,41
2022-12-01T05:48:50.750Z,39
2022-12-01T05:49:51.131Z,40
2022-12-01T05:50:50.751Z,39
2022-12-01T05:51:50.746Z,40
2022-12-01T05:52:50.749Z,38
2022-12-01T05:53:50.753Z,37
2022-12-01T05:54:50.748Z,39
2022-12-01T05:55:50.749Z,37
2022-12-01T05:56:50.753Z,40
2022-12-01T05:57:50.754Z,42
2022-12-01T05:58:50.821Z,35
2022-12-01T05:59:51.180Z,40
2022-12-01T06:00:50.750Z,39
2022-12-01T06:01:50.838Z,39
2022-12-01T06:02:50.761Z,39
2022-12-01T06:03:50.832Z,38
2022-12-01T06:04:50.749Z,42
2022-12-01T06:05:50.745Z,46
2022-12-01T06:06:50.754Z,45
2022-12-01T06:07:50.795Z,45
2022-12-01T06:08:50.753Z,44
2022-12-01T06:09:51.084Z,45
2022-12-01T06:10:50.750Z,48
2022-12-01T06:11:52.660Z,42
2022-12-01T06:12:50.746Z,47
2022-12-01T06:13:50.774Z,42
2022-12-01T06:14:50.742Z,47
2022-12-01T06:15:50.746Z,50
2022-12-01T06:16:50.820Z,46
2022-12-01T06:17:50.760Z,42
2022-12-01T06:18:50.755Z,43
2022-12-01T06:19:51.201Z,47
2022-12-01T06:20:50.752Z,48
2022-12-01T06:21:50.758Z,49
2022-12-01T06:22:50.754Z,41
2022-12-01T06:23:50.747Z,44
2022-12-01T06:24:50.766Z,48
2022-12-01T06:25:50.746Z,49
2022-12-01T06:26:50.752Z,49
2022-12-01T06:27:50.752Z,47
2022-12-01T06:28:50.746Z,48
2022-12-01T06:29:50.971Z,46
2022-12-01T06:30:50.752Z,50
2022-12-01T06:31:50.838Z,50
2022-12-01T06:32:50.758Z,47
2022-12-01T06:33:50.756Z,54
2022-12-01T06:34:50.754Z,46
2022-12-01T06:35:50.755Z,49
2022-12-01T06:36:50.759Z,49
2022-12-01T06:37:50.770Z,50
2022-12-01T06:38:50.758Z,52
2022-12-01T06:39:51.094Z,50
2022-12-01T06:40:50.761Z,53
2022-12-01T06:41:50.756Z,53
2022-12-01T06:42:50.754Z,51
2022-12-01T06:43:50.747Z,52
2022-12-01T06:44:50.776Z,54
2022-12-01T06:45:50.877Z,57
2022-12-01T06:47:50.897Z,58
2022-12-01T06:48:50.748Z,57
2022-12-01T06:49:51.249Z,54
2022-12-01T06:50:50.747Z,56
2022-12-01T06:51:50.745Z,55
2022-12-01T06:52:50.757Z,56
2022-12-01T06:53:50.753Z,54
2022-12-01T06:54:50.756Z,55
2022-12-01T06:55:50.753Z,58
2022-12-01T06:56:50.750Z,54
2022-12-01T06:57:50.758Z,48
2022-12-01T06:58:50.814Z,54
2022-12-01T06:59:51.283Z,51
2022-12-01T07:00:52.359Z,46
2022-12-01T07:01:50.801Z,49
2022-12-01T07:02:50.863Z,47
2022-12-01T07:03:50.759Z,46
2022-12-01T07:04:50.759Z,51
2022-12-01T07:05:50.795Z,49
2022-12-01T07:06:50.758Z,45
2022-12-01T07:07:55.031Z,49
2022-12-01T07:08:50.752Z,45
2022-12-01T07:09:51.016Z,49
2022-12-01T07:10:50.810Z,47
2022-12-01T07:11:50.770Z,52
2022-12-01T07:12:50.779Z,46
2022-12-01T07:13:50.744Z,47
2022-12-01T07:14:50.761Z,44
2022-12-01T07:15:50.771Z,47
2022-12-01T07:16:50.817Z,42
2022-12-01T07:17:50.765Z,45
2022-12-01T07:18:50.757Z,44
2022-12-01T07:19:51.026Z,44
2022-12-01T07:20:50.757Z,44
2022-12-01T07:21:50.775Z,47
2022-12-01T07:22:50.754Z,43
2022-12-01T07:23:50.761Z,46
2022-12-01T07:24:50.776Z,45
2022-12-01T07:25:50.754Z,47
2022-12-01T07:26:50.749Z,43
2022-12-01T07:27:50.749Z,46
2022-12-01T07:28:50.749Z,42
2022-12-01T07:29:50.945Z,48
2022-12-01T07:30:50.786Z,42
2022-12-01T07:31:51.394Z,40
2022-12-01T07:32:50.753Z,44
2022-12-01T07:33:50.743Z,44
2022-12-01T07:34:50.815Z,42
2022-12-01T07:35:50.755Z,39
2022-12-01T07:36:50.746Z,39
2022-12-01T07:37:50.758Z,41
2022-12-01T07:38:50.749Z,41
2022-12-01T07:39:51.129Z,40
2022-12-01T07:40:50.756Z,41
2022-12-01T07:41:50.764Z,37
2022-12-01T07:42:50.752Z,44
2022-12-01T07:43:50.758Z,40
2022-12-01T07:44:50.745Z,41
2022-12-01T07:45:50.775Z,43
2022-12-01T07:46:50.781Z,41
2022-12-01T07:47:50.750Z,41
2022-12-01T07:48:50.763Z,41
2022-12-01T07:49:51.011Z,39
2022-12-01T07:50:50.749Z,39
2022-12-01T07:51:50.753Z,40
2022-12-01T07:52:50.758Z,39
2022-12-01T07:53:50.757Z,42
2022-12-01T07:54:50.760Z,37
2022-12-01T07:55:50.758Z,40
2022-12-01T07:56:50.754Z,42
2022-12-01T07:57:50.747Z,40
2022-12-01T07:58:50.760Z,40
2022-12-01T07:59:51.068Z,41
2022-12-01T08:00:50.750Z,39
2022-12-01T08:01:50.777Z,37
2022-12-01T08:02:50.776Z,38
2022-12-01T08:03:50.754Z,41
2022-12-01T08:04:50.816Z,42
2022-12-01T08:05:50.751Z,42
2022-12-01T08:06:50.761Z,40
2022-12-01T08:07:50.855Z,40
2022-12-01T08:08:50.746Z,43
2022-12-01T08:09:51.173Z,42
2022-12-01T08:10:50.753Z,39
2022-12-01T08:11:50.751Z,43
2022-12-01T08:12:50.750Z,42
2022-12-01T08:13:50.761Z,44
2022-12-01T08:14:50.763Z,42
2022-12-01T08:15:50.814Z,41
2022-12-01T08:16:51.535Z,41
2022-12-01T08:17:50.776Z,41
2022-12-01T08:18:50.769Z,43
2022-12-01T08:19:51.060Z,44
2022-12-01T08:20:50.758Z,42
2022-12-01T08:21:50.749Z,37
2022-12-01T08:22:50.755Z,38
2022-12-01T08:23:50.745Z,37
2022-12-01T08:24:50.744Z,41
2022-12-01T08:25:50.760Z,40
2022-12-01T08:26:50.757Z,40
2022-12-01T08:27:50.752Z,37
2022-12-01T08:28:50.758Z,35
2022-12-01T08:29:51.067Z,36
2022-12-01T08:30:50.880Z,42
2022-12-01T08:31:50.769Z,38
2022-12-01T08:32:50.750Z,39
2022-12-01T08:33:50.770Z,35
2022-12-01T08:34:53.447Z,41
2022-12-01T08:35:50.758Z,39
2022-12-01T08:36:50.778Z,39
2022-12-01T08:37:50.747Z,37
2022-12-01T08:38:50.748Z,40
2022-12-01T08:39:51.083Z,38
2022-12-01T08:40:50.747Z,38
2022-12-01T08:41:50.752Z,37
2022-12-01T08:42:50.751Z,35
2022-12-01T08:43:59.077Z,35
2022-12-01T08:44:50.814Z,35
2022-12-01T08:45:50.757Z,35
2022-12-01T08:46:50.863Z,31
2022-12-01T08:47:50.754Z,33
2022-12-01T08:48:50.782Z,31
2022-12-01T08:49:51.029Z,32
2022-12-01T08:50:50.754Z,33
2022-12-01T08:51:50.754Z,31
2022-12-01T08:52:50.763Z,30
2022-12-01T08:53:50.753Z,28
2022-12-01T08:54:50.762Z,30
2022-12-01T08:55:50.751Z,26
2022-12-01T08:56:50.762Z,28
2022-12-01T08:57:50.751Z,30
2022-12-01T08:58:50.757Z,27
2022-12-01T08:59:51.258Z,28
2022-12-01T09:00:50.758Z,28
2022-12-01T09:01:50.807Z,27
2022-12-01T09:02:50.819Z,27
2022-12-01T09:03:50.753Z,27
2022-12-01T09:04:50.749Z,28
2022-12-01T09:05:50.775Z,29
2022-12-01T09:06:50.749Z,27
2022-12-01T09:07:50.841Z,28
2022-12-01T09:08:50.766Z,29
2022-12-01T09:09:51.038Z,27
2022-12-01T09:10:50.761Z,30
2022-12-01T09:11:50.747Z,32
2022-12-01T09:12:50.760Z,29
2022-12-01T09:13:54.531Z,29
2022-12-01T09:14:50.769Z,30
2022-12-01T09:15:50.816Z,28
2022-12-01T09:16:50.762Z,27
2022-12-01T09:17:50.756Z,29
2022-12-01T09:18:50.760Z,31
2022-12-01T09:19:51.309Z,30
2022-12-01T09:20:50.770Z,30
2022-12-01T09:21:50.823Z,31
2022-12-01T09:22:50.748Z,31
2022-12-01T09:23:50.771Z,32
2022-12-01T09:24:50.764Z,32
2022-12-01T09:25:50.751Z,31
2022-12-01T09:26:50.765Z,33
2022-12-01T09:27:50.751Z,34
2022-12-01T09:28:50.762Z,33
2022-12-01T09:29:51.050Z,32
2022-12-01T09:30:50.753Z,38
2022-12-01T09:31:50.793Z,39
2022-12-01T09:32:50.757Z,40
2022-12-01T09:33:50.758Z,36
2022-12-01T09:34:50.745Z,37
2022-12-01T09:35:50.756Z,42
2022-12-01T09:36:50.758Z,37
2022-12-01T09:37:50.757Z,37
2022-12-01T09:38:50.786Z,37
2022-12-01T09:39:50.982Z,39
2022-12-01T09:40:50.757Z,36
2022-12-01T09:41:50.761Z,38
2022-12-01T09:42:50.765Z,33
2022-12-01T09:43:50.758Z,37
2022-12-01T09:44:50.752Z,40
2022-12-01T09:45:50.749Z,39
2022-12-01T09:46:50.789Z,39
2022-12-01T09:47:50.752Z,37
2022-12-01T09:48:50.754Z,37
2022-12-01T09:49:51.084Z,35
2022-12-01T09:50:50.807Z,40
2022-12-01T09:51:50.761Z,38
2022-12-01T09:52:50.768Z,37
2022-12-01T09:53:50.755Z,40
2022-12-01T09:54:50.751Z,35
2022-12-01T09:55:50.763Z,36
2022-12-01T09:56:50.756Z,35
2022-12-01T09:57:50.753Z,37
2022-12-01T09:58:50.764Z,35
2022-12-01T09:59:51.097Z,37
2022-12-01T10:00:50.770Z,39
2022-12-01T10:01:50.842Z,34
2022-12-01T10:02:50.760Z,36
2022-12-01T10:03:50.757Z,38
2022-12-01T10:04:50.770Z,35
2022-12-01T10:06:25.308Z,37
2022-12-01T10:06:50.767Z,35
2022-12-01T10:07:50.796Z,40
2022-12-01T10:08:50.826Z,37
2022-12-01T10:09:51.264Z,39
2022-12-01T10:10:50.765Z,39
2022-12-01T10:11:50.762Z,41
2022-12-01T10:12:50.753Z,41
2022-12-01T10:13:50.763Z,38
2022-12-01T10:14:50.760Z,38
2022-12-01T10:15:50.755Z,38
2022-12-01T10:16:50.754Z,37
2022-12-01T10:17:50.760Z,37
2022-12-01T10:18:50.765Z,37
2022-12-01T10:19:51.226Z,35
2022-12-01T10:20:50.771Z,34
2022-12-01T10:21:50.785Z,33
2022-12-01T10:22:50.753Z,35
2022-12-01T10:23:51.540Z,35
2022-12-01T10:24:50.760Z,38
2022-12-01T10:25:50.763Z,36
2022-12-01T10:26:50.755Z,43
2022-12-01T10:27:50.754Z,35
2022-12-01T10:28:50.756Z,33
2022-12-01T10:29:51.186Z,36
2022-12-01T10:30:50.780Z,35
2022-12-01T10:31:50.788Z,34
2022-12-01T10:32:50.751Z,36
2022-12-01T10:33:50.765Z,35
2022-12-01T10:34:50.763Z,35
2022-12-01T10:35:50.823Z,32
2022-12-01T10:36:50.756Z,36
2022-12-01T10:37:50.769Z,33
2022-12-01T10:38:50.766Z,30
2022-12-01T10:39:51.109Z,36
2022-12-01T10:40:50.824Z,34
2022-12-01T10:41:50.763Z,35
2022-12-01T10:42:50.766Z,33
2022-12-01T10:43:50.750Z,35
2022-12-01T10:44:50.785Z,38
2022-12-01T10:45:50.871Z,36
2022-12-01T10:46:50.755Z,35
2022-12-01T10:47:54.901Z,35
2022-12-01T10:48:50.755Z,37
2022-12-01T10:49:51.032Z,34
2022-12-01T10:50:50.756Z,38
2022-12-01T10:51:50.750Z,41
2022-12-01T10:52:50.786Z,35
2022-12-01T10:53:50.761Z,38
2022-12-01T10:54:50.761Z,41
2022-12-01T10:55:50.825Z,42
2022-12-01T10:56:50.769Z,39
2022-12-01T10:57:50.752Z,42
2022-12-01T10:58:50.759Z,41
2022-12-01T10:59:51.040Z,39
2022-12-01T11:00:59.572Z,39
2022-12-01T11:01:50.940Z,38
2022-12-01T11:02:50.848Z,43
2022-12-01T11:03:50.774Z,38
2022-12-01T11:04:50.762Z,38
2022-12-01T11:05:50.756Z,40
2022-12-01T11:06:50.763Z,39
2022-12-01T11:07:50.820Z,40
2022-12-01T11:08:50.764Z,39
2022-12-01T11:09:51.011Z,38
2022-12-01T11:10:50.747Z,41
2022-12-01T11:11:50.756Z,38
2022-12-01T11:12:50.767Z,42
2022-12-01T11:13:50.765Z,44
2022-12-01T11:14:50.758Z,41
2022-12-01T11:15:50.761Z,42
2022-12-01T11:16:50.780Z,42
2022-12-01T11:17:50.918Z,43
2022-12-01T11:18:50.775Z,40
2022-12-01T11:19:51.117Z,37
2022-12-01T11:20:50.754Z,40
2022-12-01T11:21:50.771Z,40
2022-12-01T11:22:51.841Z,37
2022-12-01T11:23:50.817Z,38
2022-12-01T11:24:50.766Z,40
2022-12-01T11:25:50.758Z,38
2022-12-01T11:26:50.757Z,39
2022-12-01T11:27:50.780Z,37
2022-12-01T11:28:50.768Z,39
2022-12-01T11:29:51.520Z,40
2022-12-01T11:30:56.445Z,43
2022-12-01T11:31:50.928Z,40
2022-12-01T11:32:50.771Z,42
2022-12-01T11:33:50.758Z,42
2022-12-01T11:34:51.053Z,42
2022-12-01T11:35:50.756Z,43
2022-12-01T11:36:50.758Z,39
2022-12-01T11:38:27.293Z,42
2022-12-01T11:38:50.759Z,39
2022-12-01T11:39:51.119Z,43
2022-12-01T11:40:50.764Z,41
2022-12-01T11:41:50.757Z,41
2022-12-01T11:42:50.757Z,40
2022-12-01T11:44:01.276Z,42
2022-12-01T11:44:51.926Z,38
2022-12-01T11:45:50.841Z,38
2022-12-01T11:47:07.691Z,40
2022-12-01T11:47:50.768Z,41
2022-12-01T11:48:50.763Z,44
2022-12-01T11:49:50.943Z,44
2022-12-01T11:50:50.770Z,46
2022-12-01T11:51:50.753Z,39
2022-12-01T11:52:50.759Z,42
2022-12-01T11:53:50.769Z,44
2022-12-01T11:54:50.785Z,45
2022-12-01T11:55:50.755Z,41
2022-12-01T11:57:17.333Z,42
2022-12-01T11:57:50.828Z,44
2022-12-01T11:58:50.941Z,46
2022-12-01T11:59:51.074Z,46
2022-12-01T12:00:50.760Z,43
2022-12-01T12:01:50.753Z,45
2022-12-01T12:02:50.848Z,45
2022-12-01T12:03:50.816Z,43
2022-12-01T12:04:50.756Z,44
2022-12-01T12:05:50.759Z,43
2022-12-01T12:06:50.784Z,44
2022-12-01T12:07:50.838Z,43
2022-12-01T12:08:50.785Z,45
2022-12-01T12:09:51.123Z,45
2022-12-01T12:10:50.791Z,43
2022-12-01T12:11:50.756Z,46
2022-12-01T12:12:50.758Z,43
2022-12-01T12:13:50.763Z,45
2022-12-01T12:14:50.828Z,41
2022-12-01T12:15:50.761Z,43
2022-12-01T12:16:50.752Z,46
2022-12-01T12:17:50.862Z,44
2022-12-01T12:18:50.783Z,44
2022-12-01T12:20:10.375Z,46
2022-12-01T12:20:50.760Z,46
2022-12-01T12:21:50.763Z,44
2022-12-01T12:23:50.759Z,42
2022-12-01T12:24:50.758Z,49
2022-12-01T12:25:50.781Z,46
2022-12-01T12:26:50.794Z,46
2022-12-01T12:27:50.768Z,45
2022-12-01T12:28:50.761Z,45
2022-12-01T12:29:51.244Z,48
2022-12-01T12:30:50.855Z,47
2022-12-01T12:31:50.758Z,45
2022-12-01T12:32:50.756Z,45
2022-12-01T12:33:50.763Z,48
2022-12-01T12:34:50.766Z,44
2022-12-01T12:35:50.762Z,48
2022-12-01T12:36:50.831Z,48
2022-12-01T12:37:50.759Z,43
2022-12-01T12:38:50.758Z,43
2022-12-01T12:39:51.221Z,42
2022-12-01T12:40:50.754Z,43
2022-12-01T12:41:50.754Z,42
2022-12-01T12:42:50.765Z,43
2022-12-01T12:43:50.762Z,45
2022-12-01T12:44:50.760Z,44
2022-12-01T12:45:50.843Z,43
2022-12-01T12:46:50.759Z,43
2022-12-01T12:47:50.762Z,45
2022-12-01T12:49:18.068Z,44
2022-12-01T12:49:51.069Z,46
2022-12-01T12:50:50.759Z,46
2022-12-01T12:51:50.775Z,45
2022-12-01T12:52:50.765Z,45
2022-12-01T12:53:50.816Z,45
2022-12-01T12:54:50.759Z,45
2022-12-01T12:55:50.767Z,46
2022-12-01T12:56:50.847Z,46
2022-12-01T12:57:50.752Z,43
2022-12-01T12:58:50.762Z,46
2022-12-01T12:59:51.044Z,46
2022-12-01T13:00:50.765Z,46
2022-12-01T13:01:50.788Z,48
2022-12-01T13:02:50.920Z,45
2022-12-01T13:03:50.763Z,46
2022-12-01T13:04:50.762Z,45
2022-12-01T13:05:50.764Z,49
2022-12-01T13:06:50.766Z,48
2022-12-01T13:07:50.816Z,47
2022-12-01T13:08:50.753Z,48
2022-12-01T13:09:51.129Z,47
2022-12-01T13:10:50.757Z,51
2022-12-01T13:11:50.767Z,50
2022-12-01T13:12:50.765Z,46
2022-12-01T13:13:50.769Z,49
2022-12-01T13:14:50.764Z,50
2022-12-01T13:15:51.003Z,48
2022-12-01T13:16:50.764Z,49
2022-12-01T13:17:50.769Z,49
2022-12-01T13:18:50.759Z,49
2022-12-01T13:19:51.183Z,50
2022-12-01T13:20:50.754Z,49
2022-12-01T13:21:50.814Z,50
2022-12-01T13:23:50.759Z,50
2022-12-01T13:24:50.771Z,49
2022-12-01T13:25:50.765Z,48
2022-12-01T13:26:50.765Z,49
2022-12-01T13:27:50.789Z,49
2022-12-01T13:28:50.785Z,52
2022-12-01T13:29:51.108Z,52
2022-12-01T13:30:50.793Z,49
2022-12-01T13:31:50.759Z,50
2022-12-01T13:32:50.761Z,54
2022-12-01T13:33:50.830Z,49
2022-12-01T13:34:50.812Z,50
2022-12-01T13:36:08.590Z,52
2022-12-01T13:36:50.764Z,51
2022-12-01T13:37:50.764Z,52
2022-12-01T13:38:50.767Z,52
2022-12-01T13:39:50.998Z,54
2022-12-01T13:40:50.761Z,51
2022-12-01T13:41:50.762Z,51
2022-12-01T13:42:50.759Z,50
2022-12-01T13:43:50.769Z,53
2022-12-01T13:44:51.202Z,53
2022-12-01T13:45:50.762Z,54
2022-12-01T13:46:50.840Z,51
2022-12-01T13:47:50.759Z,52
2022-12-01T13:48:50.761Z,51
2022-12-01T13:49:51.084Z,54
2022-12-01T13:50:50.759Z,54
2022-12-01T13:51:50.761Z,54
2022-12-01T13:52:50.759Z,53
2022-12-01T13:53:50.751Z,52
2022-12-01T13:54:50.765Z,54
2022-12-01T13:55:50.763Z,52
2022-12-01T13:56:50.763Z,55
2022-12-01T13:57:50.758Z,56
2022-12-01T13:58:50.782Z,57
2022-12-01T13:59:51.000Z,58
2022-12-01T14:00:50.860Z,53
2022-12-01T14:01:50.806Z,57
2022-12-01T14:02:50.813Z,56
2022-12-01T14:03:50.760Z,54
2022-12-01T14:04:51.176Z,57
2022-12-01T14:05:50.765Z,53
2022-12-01T14:06:50.764Z,55
2022-12-01T14:07:50.781Z,56
2022-12-01T14:08:50.752Z,59
2022-12-01T14:09:50.767Z,57
2022-12-01T14:10:50.764Z,56
2022-12-01T14:11:50.766Z,55
2022-12-01T14:12:50.757Z,54
2022-12-01T14:13:50.764Z,55
2022-12-01T14:14:50.780Z,58
2022-12-01T14:15:50.807Z,53
2022-12-01T14:16:50.764Z,53
2022-12-01T14:17:50.767Z,55
2022-12-01T14:18:50.831Z,55
2022-12-01T14:19:50.755Z,56
2022-12-01T14:20:50.764Z,57
2022-12-01T14:21:50.809Z,56
2022-12-01T14:22:50.762Z,54
2022-12-01T14:23:50.759Z,55